createdAt,value
2019-04-30T00:00:38.462Z,60.57
2019-04-30T00:01:48.514Z,60.96
2019-04-30T00:02:51.860Z,60.96
2019-04-30T00:04:05.781Z,61.13
2019-04-30T00:05:14.563Z,60.95
2019-04-30T00:06:16.060Z,60.93
2019-04-30T00:07:20.298Z,60.90
2019-04-30T00:08:25.692Z,61.25
2019-04-30T00:09:31.109Z,61.17
2019-04-30T00:10:41.244Z,60.88
2019-04-30T00:11:42.088Z,60.94
2019-04-30T00:12:46.911Z,60.93
2019-04-30T00:13:55.371Z,61.13
2019-04-30T00:14:57.003Z,61.11
2019-04-30T00:16:02.875Z,60.88
2019-04-30T00:17:10.742Z,61.10
2019-04-30T00:18:12.941Z,61.05
2019-04-30T00:19:19.657Z,61.09
2019-04-30T00:20:25.521Z,61.12
2019-04-30T00:21:29.170Z,61.12
2019-04-30T00:22:34.520Z,61.32
2019-04-30T00:23:39.572Z,61.39
2019-04-30T00:24:46.826Z,61.49
2019-04-30T00:25:49.798Z,61.65
2019-04-30T00:26:55.155Z,61.67
2019-04-30T00:28:04.291Z,61.89
2019-04-30T00:29:06.032Z,61.71
2019-04-30T00:30:10.216Z,61.77
2019-04-30T00:31:17.379Z,61.73
2019-04-30T00:32:20.465Z,61.65
2019-04-30T00:33:25.648Z,61.75
2019-04-30T00:34:34.903Z,61.63
2019-04-30T00:35:36.712Z,61.49
2019-04-30T00:36:40.899Z,61.53
2019-04-30T00:37:47.413Z,61.47
2019-04-30T00:38:51.197Z,61.39
2019-04-30T00:39:55.639Z,61.54
2019-04-30T00:41:01.862Z,61.47
2019-04-30T00:42:05.814Z,61.39
2019-04-30T00:43:10.318Z,61.47
2019-04-30T00:44:15.128Z,61.37
2019-04-30T00:45:20.505Z,61.27
2019-04-30T00:46:29.104Z,61.06
2019-04-30T00:47:30.652Z,61.01
2019-04-30T00:48:35.833Z,61.05
2019-04-30T00:49:40.181Z,61.33
2019-04-30T00:50:45.765Z,61.25
2019-04-30T00:51:54.684Z,61.12
2019-04-30T00:52:57.878Z,61.06
2019-04-30T00:54:02.013Z,61.09
2019-04-30T00:55:09.188Z,61.09
2019-04-30T00:56:15.652Z,61.12
2019-04-30T00:57:19.404Z,61.30
2019-04-30T00:58:25.853Z,61.26
2019-04-30T00:59:30.613Z,61.26
2019-04-30T01:00:37.147Z,61.07
2019-04-30T01:01:56.324Z,61.50
2019-04-30T01:03:05.891Z,61.48
2019-04-30T01:04:12.746Z,61.35
2019-04-30T01:05:21.193Z,61.42
2019-04-30T01:06:28.616Z,61.47
2019-04-30T01:07:32.490Z,61.33
2019-04-30T01:08:36.741Z,61.32
2019-04-30T01:09:46.520Z,61.20
2019-04-30T01:10:46.871Z,61.10
2019-04-30T01:11:51.052Z,61.28
2019-04-30T01:12:59.854Z,61.60
2019-04-30T01:14:01.193Z,61.50
2019-04-30T01:15:10.343Z,61.53
2019-04-30T01:16:12.062Z,61.46
2019-04-30T01:17:16.282Z,61.45
2019-04-30T01:18:23.580Z,61.35
2019-04-30T01:19:30.116Z,61.31
2019-04-30T01:20:32.984Z,61.29
2019-04-30T01:21:40.199Z,61.25
2019-04-30T01:22:43.212Z,61.10
2019-04-30T01:23:51.817Z,61.21
2019-04-30T01:24:53.354Z,61.14
2019-04-30T01:25:58.546Z,60.95
2019-04-30T01:27:06.707Z,60.98
2019-04-30T01:28:10.871Z,60.87
2019-04-30T01:29:15.175Z,60.94
2019-04-30T01:30:22.709Z,61.16
2019-04-30T01:31:25.716Z,61.22
2019-04-30T01:32:30.176Z,61.13
2019-04-30T01:33:35.706Z,61.22
2019-04-30T01:34:44.268Z,61.18
2019-04-30T01:35:48.793Z,61.09
2019-04-30T01:36:53.073Z,61.25
2019-04-30T01:37:57.373Z,61.13
2019-04-30T01:39:02.206Z,61.02
2019-04-30T01:40:13.673Z,60.94
2019-04-30T01:41:13.928Z,60.96
2019-04-30T01:42:18.545Z,61.08
2019-04-30T01:43:30.574Z,60.89
2019-04-30T01:44:29.511Z,60.87
2019-04-30T01:45:33.773Z,60.93
2019-04-30T01:46:39.080Z,60.81
2019-04-30T01:47:43.252Z,60.95
2019-04-30T01:48:48.592Z,60.89
2019-04-30T01:49:55.910Z,60.83
2019-04-30T01:51:01.151Z,60.80
2019-04-30T01:52:05.362Z,60.79
2019-04-30T01:53:13.044Z,60.75
2019-04-30T01:54:20.817Z,60.71
2019-04-30T01:55:24.397Z,60.62
2019-04-30T01:56:30.220Z,60.54
2019-04-30T01:57:45.082Z,60.40
2019-04-30T01:58:59.907Z,60.38
2019-04-30T02:00:16.744Z,60.29
2019-04-30T02:01:22.629Z,60.34
2019-04-30T02:02:28.667Z,60.30
2019-04-30T02:03:33.120Z,60.40
2019-04-30T02:04:39.334Z,60.49
2019-04-30T02:05:43.273Z,60.54
2019-04-30T02:06:49.374Z,60.61
2019-04-30T02:07:53.742Z,60.77
2019-04-30T02:08:59.349Z,60.96
2019-04-30T02:10:05.105Z,60.77
2019-04-30T02:11:09.291Z,60.79
2019-04-30T02:12:13.498Z,60.79
2019-04-30T02:13:18.880Z,60.89
2019-04-30T02:14:23.401Z,60.95
2019-04-30T02:15:29.189Z,60.88
2019-04-30T02:16:33.540Z,60.83
2019-04-30T02:17:38.833Z,60.80
2019-04-30T02:18:43.187Z,60.78
2019-04-30T02:19:54.771Z,60.72
2019-04-30T02:20:53.342Z,60.64
2019-04-30T02:21:58.567Z,60.49
2019-04-30T02:23:02.752Z,60.42
2019-04-30T02:24:08.939Z,60.38
2019-04-30T02:25:14.615Z,60.31
2019-04-30T02:26:18.881Z,60.15
2019-04-30T02:27:23.166Z,60.14
2019-04-30T02:28:28.994Z,60.24
2019-04-30T02:29:33.579Z,60.30
2019-04-30T02:30:40.458Z,60.30
2019-04-30T02:31:44.668Z,60.26
2019-04-30T02:32:52.266Z,60.11
2019-04-30T02:33:56.584Z,60.12
2019-04-30T02:35:11.814Z,60.06
2019-04-30T02:36:24.218Z,60.02
2019-04-30T02:37:30.242Z,59.87
2019-04-30T02:38:36.130Z,59.93
2019-04-30T02:39:40.516Z,59.93
2019-04-30T02:40:45.218Z,59.90
2019-04-30T02:41:50.654Z,59.85
2019-04-30T02:42:57.871Z,59.84
2019-04-30T02:44:00.966Z,59.87
2019-04-30T02:45:10.130Z,59.93
2019-04-30T02:46:13.138Z,59.93
2019-04-30T02:47:20.106Z,59.92
2019-04-30T02:48:23.308Z,59.94
2019-04-30T02:49:30.320Z,59.86
2019-04-30T02:50:33.763Z,59.76
2019-04-30T02:51:40.005Z,59.79
2019-04-30T02:52:44.034Z,60.06
2019-04-30T02:54:00.560Z,60.04
2019-04-30T02:55:05.042Z,60.00
2019-04-30T02:56:09.971Z,60.04
2019-04-30T02:57:14.261Z,60.02
2019-04-30T02:58:21.008Z,60.06
2019-04-30T02:59:24.669Z,59.96
2019-04-30T03:00:32.549Z,60.02
2019-04-30T03:01:34.807Z,60.02
2019-04-30T03:02:39.598Z,60.07
2019-04-30T03:03:43.803Z,60.18
2019-04-30T03:04:50.254Z,60.17
2019-04-30T03:05:53.997Z,60.17
2019-04-30T03:06:59.884Z,60.19
2019-04-30T03:08:05.032Z,60.26
2019-04-30T03:09:10.291Z,60.46
2019-04-30T03:10:15.378Z,60.64
2019-04-30T03:11:20.654Z,60.61
2019-04-30T03:12:25.327Z,60.78
2019-04-30T03:13:30.580Z,60.67
2019-04-30T03:14:35.847Z,60.63
2019-04-30T03:15:40.148Z,60.60
2019-04-30T03:16:52.735Z,60.55
2019-04-30T03:18:00.621Z,60.47
2019-04-30T03:19:24.691Z,60.54
2019-04-30T03:20:36.764Z,60.68
2019-04-30T03:22:00.148Z,60.68
2019-04-30T03:23:04.662Z,60.60
2019-04-30T03:24:10.752Z,60.84
2019-04-30T03:25:15.294Z,60.91
2019-04-30T03:26:20.085Z,60.93
2019-04-30T03:27:25.481Z,60.90
2019-04-30T03:28:30.222Z,60.85
2019-04-30T03:29:34.598Z,60.83
2019-04-30T03:30:41.789Z,60.90
2019-04-30T03:31:45.777Z,60.85
2019-04-30T03:32:56.571Z,60.77
2019-04-30T03:34:01.561Z,60.77
2019-04-30T03:35:05.075Z,60.85
2019-04-30T03:36:12.447Z,61.00
2019-04-30T03:37:15.249Z,60.90
2019-04-30T03:38:20.428Z,60.94
2019-04-30T03:39:29.701Z,60.93
2019-04-30T03:40:50.202Z,60.94
2019-04-30T03:41:59.531Z,60.87
2019-04-30T03:43:09.950Z,60.79
2019-04-30T03:44:21.572Z,60.70
2019-04-30T03:45:20.896Z,60.70
2019-04-30T03:46:25.173Z,60.65
2019-04-30T03:47:29.982Z,60.69
2019-04-30T03:48:34.479Z,60.65
2019-04-30T03:49:40.189Z,60.56
2019-04-30T03:50:53.232Z,60.53
2019-04-30T03:51:51.657Z,60.50
2019-04-30T03:52:56.036Z,60.49
2019-04-30T03:54:00.290Z,60.50
2019-04-30T03:55:06.291Z,60.56
2019-04-30T03:56:10.470Z,60.70
2019-04-30T03:57:14.718Z,60.65
2019-04-30T03:58:21.294Z,60.54
2019-04-30T03:59:24.876Z,60.53
2019-04-30T04:00:46.843Z,60.42
2019-04-30T04:01:53.742Z,60.36
2019-04-30T04:02:59.938Z,60.39
2019-04-30T04:04:15.271Z,60.33
2019-04-30T04:05:23.989Z,60.29
2019-04-30T04:06:32.777Z,60.29
2019-04-30T04:07:59.254Z,60.26
2019-04-30T04:09:10.118Z,60.24
2019-04-30T04:10:23.663Z,60.17
2019-04-30T04:11:29.933Z,60.21
2019-04-30T04:12:34.218Z,60.16
2019-04-30T04:13:40.023Z,60.11
2019-04-30T04:14:44.515Z,60.02
2019-04-30T04:15:49.989Z,60.04
2019-04-30T04:16:54.255Z,60.01
2019-04-30T04:18:00.329Z,60.01
2019-04-30T04:19:04.474Z,59.97
2019-04-30T04:20:10.744Z,59.88
2019-04-30T04:21:16.890Z,59.81
2019-04-30T04:22:21.034Z,59.83
2019-04-30T04:23:25.377Z,59.81
2019-04-30T04:24:30.211Z,59.76
2019-04-30T04:25:34.665Z,59.66
2019-04-30T04:26:43.345Z,59.53
2019-04-30T04:27:45.178Z,59.66
2019-04-30T04:28:49.838Z,59.61
2019-04-30T04:29:54.264Z,59.63
2019-04-30T04:31:00.155Z,59.60
2019-04-30T04:32:04.758Z,59.64
2019-04-30T04:33:10.185Z,59.50
2019-04-30T04:34:14.753Z,59.49
2019-04-30T04:35:19.726Z,59.54
2019-04-30T04:36:24.232Z,59.67
2019-04-30T04:37:30.218Z,59.63
2019-04-30T04:38:34.474Z,59.62
2019-04-30T04:39:38.973Z,59.50
2019-04-30T04:40:44.674Z,59.57
2019-04-30T04:41:50.370Z,59.67
2019-04-30T04:42:54.764Z,59.77
2019-04-30T04:44:00.210Z,59.76
2019-04-30T04:45:05.302Z,59.84
2019-04-30T04:46:09.545Z,59.85
2019-04-30T04:47:16.131Z,59.87
2019-04-30T04:48:23.046Z,59.76
2019-04-30T04:49:25.896Z,59.71
2019-04-30T04:50:30.527Z,59.79
2019-04-30T04:51:39.585Z,59.68
2019-04-30T04:52:41.651Z,59.57
2019-04-30T04:53:45.839Z,59.53
2019-04-30T04:54:50.990Z,59.47
2019-04-30T04:55:55.435Z,59.52
2019-04-30T04:57:13.222Z,59.56
2019-04-30T04:58:05.633Z,59.63
2019-04-30T04:59:10.368Z,59.43
2019-04-30T05:00:14.809Z,59.37
2019-04-30T05:01:20.590Z,59.41
2019-04-30T05:02:32.343Z,59.51
2019-04-30T05:03:39.916Z,59.52
2019-04-30T05:04:44.277Z,59.56
2019-04-30T05:05:49.968Z,59.58
2019-04-30T05:06:54.712Z,59.61
2019-04-30T05:07:58.891Z,59.59
2019-04-30T05:09:03.217Z,59.76
2019-04-30T05:10:09.202Z,59.68
2019-04-30T05:11:13.467Z,59.63
2019-04-30T05:12:18.571Z,59.70
2019-04-30T05:13:22.868Z,59.70
2019-04-30T05:14:28.808Z,59.73
2019-04-30T05:15:33.152Z,59.68
2019-04-30T05:16:38.885Z,59.54
2019-04-30T05:17:49.442Z,59.38
2019-04-30T05:18:53.738Z,59.42
2019-04-30T05:19:58.684Z,59.48
2019-04-30T05:21:03.166Z,59.43
2019-04-30T05:22:09.221Z,59.40
2019-04-30T05:23:13.799Z,59.59
2019-04-30T05:24:19.128Z,59.54
2019-04-30T05:25:23.449Z,59.41
2019-04-30T05:26:28.682Z,59.19
2019-04-30T05:27:33.297Z,59.15
2019-04-30T05:28:39.322Z,59.18
2019-04-30T05:29:43.649Z,59.09
2019-04-30T05:30:49.420Z,59.01
2019-04-30T05:31:53.752Z,58.95
2019-04-30T05:32:58.887Z,59.02
2019-04-30T05:34:03.139Z,59.17
2019-04-30T05:35:07.323Z,59.13
2019-04-30T05:36:11.517Z,59.08
2019-04-30T05:37:15.777Z,59.48
2019-04-30T05:38:19.976Z,59.43
2019-04-30T05:39:24.226Z,59.29
2019-04-30T05:40:28.794Z,59.04
2019-04-30T05:41:33.080Z,58.93
2019-04-30T05:42:38.775Z,59.06
2019-04-30T05:43:43.177Z,59.06
2019-04-30T05:44:49.536Z,58.98
2019-04-30T05:45:53.454Z,58.83
2019-04-30T05:46:59.220Z,58.69
2019-04-30T05:48:04.566Z,58.61
2019-04-30T05:49:09.082Z,58.44
2019-04-30T05:50:13.281Z,58.45
2019-04-30T05:51:19.372Z,58.38
2019-04-30T05:52:23.351Z,58.28
2019-04-30T05:53:28.705Z,58.02
2019-04-30T05:54:33.110Z,57.68
2019-04-30T05:55:39.381Z,57.99
2019-04-30T05:56:43.569Z,57.99
2019-04-30T05:57:56.037Z,58.06
2019-04-30T05:58:53.631Z,57.72
2019-04-30T05:59:58.559Z,57.59
2019-04-30T06:01:02.931Z,57.47
2019-04-30T06:02:08.833Z,57.44
2019-04-30T06:03:24.961Z,57.52
2019-04-30T06:04:19.420Z,57.32
2019-04-30T06:05:23.902Z,57.46
2019-04-30T06:06:29.038Z,57.43
2019-04-30T06:07:33.326Z,57.64
2019-04-30T06:08:42.084Z,57.60
2019-04-30T06:09:48.530Z,57.70
2019-04-30T06:10:55.514Z,57.63
2019-04-30T06:12:12.867Z,57.98
2019-04-30T06:13:28.742Z,57.84
2019-04-30T06:14:49.895Z,57.54
2019-04-30T06:15:53.887Z,57.21
2019-04-30T06:17:11.401Z,57.09
2019-04-30T06:18:15.791Z,56.72
2019-04-30T06:19:19.977Z,56.26
2019-04-30T06:20:24.165Z,56.41
2019-04-30T06:21:29.467Z,56.41
2019-04-30T06:22:33.857Z,56.52
2019-04-30T06:23:39.299Z,56.19
2019-04-30T06:24:43.566Z,55.58
2019-04-30T06:25:57.265Z,55.80
2019-04-30T06:26:55.081Z,56.41
2019-04-30T06:27:59.273Z,55.45
2019-04-30T06:29:04.527Z,55.47
2019-04-30T06:30:09.671Z,55.55
2019-04-30T06:31:14.976Z,55.72
2019-04-30T06:32:19.230Z,55.49
2019-04-30T06:33:23.431Z,55.31
2019-04-30T06:34:29.406Z,55.13
2019-04-30T06:35:33.745Z,55.47
2019-04-30T06:36:39.469Z,55.57
2019-04-30T06:37:44.000Z,55.25
2019-04-30T06:38:48.941Z,55.54
2019-04-30T06:39:53.391Z,54.59
2019-04-30T06:40:58.828Z,54.81
2019-04-30T06:42:06.765Z,54.72
2019-04-30T06:43:09.295Z,54.88
2019-04-30T06:44:13.631Z,54.28
2019-04-30T06:45:19.150Z,54.53
2019-04-30T06:46:23.476Z,54.91
2019-04-30T06:47:33.119Z,54.78
2019-04-30T06:48:33.647Z,54.26
2019-04-30T06:49:39.323Z,54.11
2019-04-30T06:50:44.010Z,54.19
2019-04-30T06:51:49.198Z,53.96
2019-04-30T06:52:58.402Z,54.23
2019-04-30T06:53:59.529Z,53.56
2019-04-30T06:55:04.346Z,53.68
2019-04-30T06:56:09.978Z,54.10
2019-04-30T06:57:14.168Z,54.17
2019-04-30T06:58:20.500Z,53.83
2019-04-30T06:59:24.286Z,53.92
2019-04-30T07:00:40.076Z,54.00
2019-04-30T07:01:44.217Z,53.53
2019-04-30T07:02:49.445Z,53.56
2019-04-30T07:03:55.625Z,53.74
2019-04-30T07:04:59.881Z,53.68
2019-04-30T07:06:04.533Z,54.12
2019-04-30T07:07:09.285Z,53.75
2019-04-30T07:08:39.637Z,53.85
2019-04-30T07:09:51.493Z,53.98
2019-04-30T07:10:55.367Z,54.08
2019-04-30T07:12:09.042Z,54.02
2019-04-30T07:13:15.006Z,53.69
2019-04-30T07:14:24.989Z,53.35
2019-04-30T07:15:29.674Z,53.28
2019-04-30T07:16:34.273Z,53.15
2019-04-30T07:17:40.524Z,53.37
2019-04-30T07:18:44.536Z,53.45
2019-04-30T07:19:54.302Z,53.06
2019-04-30T07:20:54.710Z,53.35
2019-04-30T07:21:59.432Z,53.71
2019-04-30T07:23:04.876Z,53.61
2019-04-30T07:24:09.415Z,53.33
2019-04-30T07:25:13.724Z,53.62
2019-04-30T07:26:22.746Z,53.67
2019-04-30T07:27:24.369Z,53.50
2019-04-30T07:28:43.729Z,53.66
2019-04-30T07:29:34.876Z,53.23
2019-04-30T07:30:39.614Z,53.49
2019-04-30T07:31:43.939Z,53.51
2019-04-30T07:32:48.987Z,53.76
2019-04-30T07:33:54.105Z,53.91
2019-04-30T07:34:59.572Z,53.81
2019-04-30T07:36:03.893Z,53.49
2019-04-30T07:37:14.477Z,53.34
2019-04-30T07:38:14.047Z,53.28
2019-04-30T07:39:19.248Z,53.34
2019-04-30T07:40:23.829Z,53.42
2019-04-30T07:41:30.811Z,53.13
2019-04-30T07:42:38.187Z,53.37
2019-04-30T07:43:39.940Z,54.04
2019-04-30T07:44:44.199Z,52.66
2019-04-30T07:45:49.603Z,53.20
2019-04-30T07:46:55.022Z,53.49
2019-04-30T07:47:59.498Z,53.61
2019-04-30T07:49:03.637Z,53.51
2019-04-30T07:50:10.289Z,53.52
2019-04-30T07:51:14.417Z,53.36
2019-04-30T07:52:21.642Z,54.02
2019-04-30T07:53:24.817Z,53.60
2019-04-30T07:54:30.062Z,53.67
2019-04-30T07:55:34.333Z,50.94
2019-04-30T07:56:41.501Z,52.21
2019-04-30T07:57:44.595Z,52.05
2019-04-30T07:58:50.476Z,52.86
2019-04-30T07:59:54.813Z,53.17
2019-04-30T08:00:59.383Z,52.12
2019-04-30T08:02:10.875Z,51.22
2019-04-30T08:03:24.062Z,51.90
2019-04-30T08:04:35.678Z,51.94
2019-04-30T08:05:41.633Z,52.15
2019-04-30T08:06:45.963Z,51.06
2019-04-30T08:07:51.496Z,51.91
2019-04-30T08:08:58.338Z,51.53
2019-04-30T08:10:01.816Z,51.08
2019-04-30T08:11:06.068Z,50.09
2019-04-30T08:12:11.600Z,50.48
2019-04-30T08:13:16.821Z,51.28
2019-04-30T08:14:24.352Z,50.15
2019-04-30T08:15:29.454Z,49.87
2019-04-30T08:16:33.528Z,49.92
2019-04-30T08:17:38.927Z,49.89
2019-04-30T08:18:43.265Z,49.10
2019-04-30T08:19:49.002Z,49.65
2019-04-30T08:20:53.431Z,50.15
2019-04-30T08:21:58.570Z,50.03
2019-04-30T08:23:13.336Z,49.93
2019-04-30T08:24:09.275Z,49.67
2019-04-30T08:25:13.718Z,50.08
2019-04-30T08:26:18.866Z,49.22
2019-04-30T08:27:23.271Z,48.94
2019-04-30T08:28:30.192Z,47.85
2019-04-30T08:29:33.417Z,48.28
2019-04-30T08:30:39.151Z,47.63
2019-04-30T08:31:43.676Z,47.84
2019-04-30T08:32:49.784Z,46.27
2019-04-30T08:33:54.817Z,46.20
2019-04-30T08:35:00.960Z,47.06
2019-04-30T08:36:04.910Z,47.10
2019-04-30T08:37:17.035Z,45.12
2019-04-30T08:38:15.006Z,45.62
2019-04-30T08:39:19.716Z,46.34
2019-04-30T08:40:24.139Z,47.47
2019-04-30T08:41:29.254Z,46.22
2019-04-30T08:42:34.663Z,44.67
2019-04-30T08:43:39.607Z,44.69
2019-04-30T08:44:43.795Z,45.00
2019-04-30T08:45:48.827Z,43.69
2019-04-30T08:46:53.195Z,42.78
2019-04-30T08:47:58.999Z,43.08
2019-04-30T08:49:03.853Z,44.90
2019-04-30T08:50:09.760Z,45.02
2019-04-30T08:51:15.424Z,43.74
2019-04-30T08:52:20.056Z,43.18
2019-04-30T08:53:29.432Z,42.38
2019-04-30T08:54:30.694Z,42.49
2019-04-30T08:55:35.134Z,43.94
2019-04-30T08:56:39.316Z,44.58
2019-04-30T08:57:43.674Z,43.10
2019-04-30T08:58:49.095Z,43.51
2019-04-30T08:59:53.406Z,44.16
2019-04-30T09:00:58.801Z,42.28
2019-04-30T09:02:15.303Z,43.58
2019-04-30T09:03:09.411Z,43.52
2019-04-30T09:04:13.809Z,43.71
2019-04-30T09:05:28.159Z,42.07
2019-04-30T09:06:31.936Z,41.20
2019-04-30T09:07:36.115Z,41.85
2019-04-30T09:08:40.472Z,41.82
2019-04-30T09:09:45.134Z,41.28
2019-04-30T09:10:50.942Z,41.80
2019-04-30T09:11:55.944Z,41.55
2019-04-30T09:13:00.296Z,39.93
2019-04-30T09:14:04.482Z,40.67
2019-04-30T09:15:09.188Z,41.05
2019-04-30T09:16:13.787Z,38.99
2019-04-30T09:17:20.027Z,39.42
2019-04-30T09:18:24.470Z,40.03
2019-04-30T09:19:29.848Z,40.72
2019-04-30T09:20:34.340Z,40.81
2019-04-30T09:21:40.188Z,41.28
2019-04-30T09:22:44.490Z,42.03
2019-04-30T09:23:52.408Z,42.10
2019-04-30T09:24:54.647Z,42.08
2019-04-30T09:25:58.920Z,41.04
2019-04-30T09:27:04.351Z,41.23
2019-04-30T09:28:08.689Z,40.58
2019-04-30T09:29:13.215Z,40.98
2019-04-30T09:30:18.882Z,39.52
2019-04-30T09:31:23.332Z,38.13
2019-04-30T09:32:29.111Z,39.39
2019-04-30T09:33:33.470Z,38.88
2019-04-30T09:34:38.466Z,39.39
2019-04-30T09:35:42.933Z,38.77
2019-04-30T09:36:48.888Z,38.59
2019-04-30T09:37:59.782Z,38.34
2019-04-30T09:39:01.538Z,38.21
2019-04-30T09:40:16.249Z,37.76
2019-04-30T09:41:13.682Z,36.37
2019-04-30T09:42:19.465Z,37.25
2019-04-30T09:43:25.158Z,37.49
2019-04-30T09:44:30.965Z,36.51
2019-04-30T09:45:35.342Z,37.19
2019-04-30T09:46:39.588Z,36.77
2019-04-30T09:47:44.391Z,36.05
2019-04-30T09:48:50.679Z,37.01
2019-04-30T09:49:54.745Z,37.39
2019-04-30T09:51:00.654Z,37.17
2019-04-30T09:52:05.055Z,34.92
2019-04-30T09:53:10.522Z,35.23
2019-04-30T09:54:19.683Z,36.14
2019-04-30T09:55:20.948Z,37.27
2019-04-30T09:56:25.221Z,36.03
2019-04-30T09:57:29.691Z,36.03
2019-04-30T09:58:34.884Z,36.47
2019-04-30T09:59:39.215Z,37.29
2019-04-30T10:00:43.771Z,37.30
2019-04-30T10:01:48.113Z,35.87
2019-04-30T10:02:52.293Z,36.27
2019-04-30T10:03:57.466Z,35.97
2019-04-30T10:05:05.528Z,35.07
2019-04-30T10:06:10.172Z,35.07
2019-04-30T10:07:14.472Z,34.99
2019-04-30T10:08:20.759Z,34.90
2019-04-30T10:09:24.931Z,35.02
2019-04-30T10:10:30.820Z,35.51
2019-04-30T10:11:36.762Z,35.72
2019-04-30T10:12:41.513Z,35.53
2019-04-30T10:13:45.786Z,34.47
2019-04-30T10:14:51.003Z,34.26
2019-04-30T10:15:59.747Z,33.63
2019-04-30T10:17:30.711Z,33.78
2019-04-30T10:18:43.021Z,34.01
2019-04-30T10:19:49.041Z,33.48
2019-04-30T10:20:53.188Z,33.50
2019-04-30T10:21:58.999Z,33.88
2019-04-30T10:23:03.555Z,33.52
2019-04-30T10:24:13.051Z,31.81
2019-04-30T10:25:13.746Z,32.75
2019-04-30T10:26:17.912Z,32.13
2019-04-30T10:27:22.932Z,31.23
2019-04-30T10:28:45.105Z,31.09
2019-04-30T10:29:49.962Z,30.77
2019-04-30T10:30:54.227Z,28.90
2019-04-30T10:31:58.827Z,28.18
2019-04-30T10:33:03.100Z,26.70
2019-04-30T10:34:07.339Z,28.29
2019-04-30T10:35:11.516Z,28.82
2019-04-30T10:36:15.814Z,29.22
2019-04-30T10:37:19.997Z,30.17
2019-04-30T10:38:24.240Z,27.95
2019-04-30T10:39:29.675Z,28.43
2019-04-30T10:40:34.138Z,28.57
2019-04-30T10:41:39.507Z,27.77
2019-04-30T10:42:43.808Z,27.64
2019-04-30T10:43:49.200Z,27.69
2019-04-30T10:44:53.592Z,28.27
2019-04-30T10:45:58.590Z,28.52
2019-04-30T10:47:03.058Z,29.46
2019-04-30T10:48:07.309Z,28.78
2019-04-30T10:49:11.839Z,28.32
2019-04-30T10:50:16.607Z,26.43
2019-04-30T10:51:20.870Z,28.20
2019-04-30T10:52:25.060Z,28.14
2019-04-30T10:53:29.297Z,27.66
2019-04-30T10:54:33.996Z,28.34
2019-04-30T10:55:39.397Z,27.00
2019-04-30T10:56:43.712Z,26.03
2019-04-30T10:57:49.564Z,26.03
2019-04-30T10:58:53.773Z,25.46
2019-04-30T10:59:58.694Z,25.66
2019-04-30T11:01:03.100Z,25.70
2019-04-30T11:02:09.048Z,25.24
2019-04-30T11:03:19.978Z,25.56
2019-04-30T11:04:20.992Z,25.92
2019-04-30T11:05:25.229Z,25.75
2019-04-30T11:06:29.531Z,24.96
2019-04-30T11:07:33.707Z,24.22
2019-04-30T11:08:37.895Z,24.73
2019-04-30T11:09:42.132Z,25.29
2019-04-30T11:10:46.577Z,25.26
2019-04-30T11:11:50.867Z,25.82
2019-04-30T11:12:55.045Z,25.83
2019-04-30T11:13:59.360Z,25.26
2019-04-30T11:15:06.337Z,24.94
2019-04-30T11:16:15.177Z,25.92
2019-04-30T11:17:16.864Z,26.61
2019-04-30T11:18:21.613Z,24.70
2019-04-30T11:19:26.125Z,24.26
2019-04-30T11:20:30.640Z,24.05
2019-04-30T11:21:35.173Z,25.31
2019-04-30T11:22:39.716Z,24.98
2019-04-30T11:23:44.324Z,24.04
2019-04-30T11:24:59.137Z,24.77
2019-04-30T11:25:54.990Z,24.40
2019-04-30T11:27:01.661Z,24.32
2019-04-30T11:28:06.878Z,24.57
2019-04-30T11:29:12.580Z,24.91
2019-04-30T11:30:21.349Z,24.20
2019-04-30T11:31:24.856Z,24.69
2019-04-30T11:32:29.452Z,24.97
2019-04-30T11:33:34.138Z,24.34
2019-04-30T11:34:38.808Z,24.35
2019-04-30T11:35:42.987Z,24.98
2019-04-30T11:36:47.233Z,25.27
2019-04-30T11:37:51.415Z,24.96
2019-04-30T11:38:55.746Z,25.08
2019-04-30T11:40:00.102Z,24.82
2019-04-30T11:41:04.415Z,25.12
2019-04-30T11:42:08.744Z,25.88
2019-04-30T11:43:12.911Z,24.73
2019-04-30T11:44:30.619Z,24.93
2019-04-30T11:45:45.772Z,25.83
2019-04-30T11:46:59.737Z,25.91
2019-04-30T11:48:04.420Z,25.41
2019-04-30T11:49:09.651Z,24.74
2019-04-30T11:50:14.009Z,25.02
2019-04-30T11:51:19.424Z,24.45
2019-04-30T11:52:23.870Z,25.54
2019-04-30T11:53:30.637Z,25.98
2019-04-30T11:54:33.928Z,25.98
2019-04-30T11:55:39.045Z,25.08
2019-04-30T11:56:43.339Z,24.80
2019-04-30T11:57:49.416Z,25.23
2019-04-30T11:58:53.764Z,26.00
2019-04-30T11:59:57.953Z,24.75
2019-04-30T12:01:02.435Z,24.81
2019-04-30T12:02:08.253Z,25.33
2019-04-30T12:03:12.522Z,25.27
2019-04-30T12:04:16.751Z,25.92
2019-04-30T12:05:20.969Z,25.94
2019-04-30T12:06:25.165Z,25.57
2019-04-30T12:07:33.964Z,25.71
2019-04-30T12:08:55.892Z,25.50
2019-04-30T12:10:19.458Z,25.84
2019-04-30T12:11:41.251Z,25.88
2019-04-30T12:12:46.025Z,25.33
2019-04-30T12:13:50.203Z,25.81
2019-04-30T12:14:54.476Z,25.26
2019-04-30T12:15:59.094Z,25.08
2019-04-30T12:17:03.322Z,25.08
2019-04-30T12:18:07.507Z,24.61
2019-04-30T12:19:11.696Z,25.06
2019-04-30T12:20:16.150Z,25.34
2019-04-30T12:21:20.357Z,25.23
2019-04-30T12:22:24.534Z,24.78
2019-04-30T12:23:28.823Z,24.63
2019-04-30T12:24:33.008Z,24.69
2019-04-30T12:25:38.813Z,24.28
2019-04-30T12:26:43.210Z,24.80
2019-04-30T12:27:48.782Z,25.25
2019-04-30T12:28:53.255Z,25.42
2019-04-30T12:29:59.334Z,23.77
2019-04-30T12:31:05.789Z,24.24
2019-04-30T12:32:09.215Z,25.02
2019-04-30T12:33:13.403Z,25.06
2019-04-30T12:34:19.269Z,25.34
2019-04-30T12:35:23.524Z,25.74
2019-04-30T12:36:28.922Z,25.32
2019-04-30T12:37:33.648Z,24.68
2019-04-30T12:38:38.100Z,24.81
2019-04-30T12:39:42.278Z,25.55
2019-04-30T12:40:46.571Z,25.45
2019-04-30T12:41:50.749Z,25.72
2019-04-30T12:42:54.936Z,24.15
2019-04-30T12:43:59.142Z,24.49
2019-04-30T12:45:07.214Z,23.69
2019-04-30T12:46:11.428Z,24.34
2019-04-30T12:47:15.737Z,24.68
2019-04-30T12:48:21.554Z,24.45
2019-04-30T12:49:25.805Z,24.89
2019-04-30T12:50:31.804Z,25.43
2019-04-30T12:51:45.551Z,24.59
2019-04-30T12:53:03.075Z,24.07
2019-04-30T12:54:11.821Z,23.22
2019-04-30T12:55:32.568Z,24.40
2019-04-30T12:56:55.589Z,24.02
2019-04-30T12:58:01.743Z,24.50
2019-04-30T12:59:05.897Z,24.56
2019-04-30T13:00:11.622Z,24.63
2019-04-30T13:01:16.043Z,24.39
2019-04-30T13:02:20.257Z,25.04
2019-04-30T13:03:24.768Z,23.60
2019-04-30T13:04:29.472Z,24.10
2019-04-30T13:05:33.722Z,23.94
2019-04-30T13:06:38.501Z,24.32
2019-04-30T13:07:43.502Z,23.98
2019-04-30T13:08:51.665Z,23.28
2019-04-30T13:09:54.919Z,23.99
2019-04-30T13:10:59.864Z,23.53
2019-04-30T13:12:05.142Z,22.75
2019-04-30T13:13:10.400Z,22.93
2019-04-30T13:14:15.580Z,23.27
2019-04-30T13:15:20.272Z,23.45
2019-04-30T13:16:24.514Z,23.48
2019-04-30T13:17:29.007Z,23.89
2019-04-30T13:18:33.248Z,23.75
2019-04-30T13:19:37.507Z,23.60
2019-04-30T13:20:41.759Z,23.42
2019-04-30T13:21:46.766Z,23.58
2019-04-30T13:22:51.048Z,23.64
2019-04-30T13:23:56.820Z,24.28
2019-04-30T13:25:01.345Z,24.00
2019-04-30T13:26:05.581Z,24.12
2019-04-30T13:27:09.759Z,24.27
2019-04-30T13:28:18.315Z,24.34
2019-04-30T13:29:24.221Z,24.28
2019-04-30T13:30:30.226Z,22.95
2019-04-30T13:31:34.476Z,22.99
2019-04-30T13:32:40.340Z,23.47
2019-04-30T13:33:46.800Z,23.64
2019-04-30T13:34:53.555Z,23.18
2019-04-30T13:35:58.813Z,23.32
2019-04-30T13:37:03.078Z,23.94
2019-04-30T13:38:14.628Z,24.21
2019-04-30T13:39:27.093Z,23.97
2019-04-30T13:40:33.539Z,23.42
2019-04-30T13:41:46.286Z,24.09
2019-04-30T13:42:52.161Z,24.24
2019-04-30T13:43:58.752Z,24.11
2019-04-30T13:45:06.357Z,23.52
2019-04-30T13:46:10.602Z,23.96
2019-04-30T13:47:14.774Z,24.11
2019-04-30T13:48:19.727Z,23.93
2019-04-30T13:49:24.077Z,23.80
2019-04-30T13:50:29.251Z,23.48
2019-04-30T13:51:33.596Z,23.71
2019-04-30T13:52:38.931Z,23.80
2019-04-30T13:53:43.284Z,23.88
2019-04-30T13:54:47.516Z,23.60
2019-04-30T13:55:51.731Z,23.79
2019-04-30T13:56:55.907Z,23.62
2019-04-30T13:58:00.237Z,23.53
2019-04-30T13:59:04.680Z,23.42
2019-04-30T14:00:12.199Z,23.13
2019-04-30T14:01:16.746Z,23.35
2019-04-30T14:02:20.959Z,23.59
2019-04-30T14:03:32.726Z,24.04
2019-04-30T14:04:41.446Z,23.93
2019-04-30T14:05:45.621Z,23.57
2019-04-30T14:07:03.386Z,23.91
2019-04-30T14:08:11.723Z,23.80